sensor_id;sensor_type;location;lat;lon;timestamp;pressure;altitude;pressure_sealevel;temperature;humidity
8320;BME280;4197;42.130;24.746;2023-02-15T00:01:12;100757.69;;;3.69;70.14
8320;BME280;4197;42.130;24.746;2023-02-15T00:03:40;100757.16;;;3.72;70.12
8320;BME280;4197;42.130;24.746;2023-02-15T00:06:08;100749.91;;;3.68;70.29
8320;BME280;4197;42.130;24.746;2023-02-15T00:08:37;100752.09;;;3.61;70.96
8320;BME280;4197;42.130;24.746;2023-02-15T00:11:06;100757.72;;;3.59;70.60
8320;BME280;4197;42.130;24.746;2023-02-15T00:13:36;100765.78;;;3.59;70.84
8320;BME280;4197;42.130;24.746;2023-02-15T00:16:07;100765.81;;;3.49;71.32
8320;BME280;4197;42.130;24.746;2023-02-15T00:18:35;100765.81;;;3.49;72.04
8320;BME280;4197;42.130;24.746;2023-02-15T00:21:06;100772.28;;;3.43;71.50
8320;BME280;4197;42.130;24.746;2023-02-15T00:23:36;100770.94;;;3.40;71.77
8320;BME280;4197;42.130;24.746;2023-02-15T00:26:09;100769.59;;;3.38;73.00
8320;BME280;4197;42.130;24.746;2023-02-15T00:28:39;100776.59;;;3.33;73.12
8320;BME280;4197;42.130;24.746;2023-02-15T00:31:08;100771.50;;;3.32;73.19
8320;BME280;4197;42.130;24.746;2023-02-15T00:33:38;100775.28;;;3.31;72.51
8320;BME280;4197;42.130;24.746;2023-02-15T00:36:11;100764.56;;;3.21;73.15
8320;BME280;4197;42.130;24.746;2023-02-15T00:38:40;100761.34;;;3.24;73.27
8320;BME280;4197;42.130;24.746;2023-02-15T00:41:12;100764.84;;;3.24;73.27
8320;BME280;4197;42.130;24.746;2023-02-15T00:43:41;100771.50;;;3.27;73.04
8320;BME280;4197;42.130;24.746;2023-02-15T00:46:09;100771.50;;;3.32;72.32
8320;BME280;4197;42.130;24.746;2023-02-15T00:48:38;100772.03;;;3.29;73.08
8320;BME280;4197;42.130;24.746;2023-02-15T00:51:07;100770.44;;;3.33;72.58
8320;BME280;4197;42.130;24.746;2023-02-15T00:53:35;100774.19;;;3.27;72.86
8320;BME280;4197;42.130;24.746;2023-02-15T00:56:03;100772.03;;;3.29;73.13
8320;BME280;4197;42.130;24.746;2023-02-15T00:58:31;100757.03;;;3.33;72.59
8320;BME280;4197;42.130;24.746;2023-02-15T01:01:05;100765.06;;;3.38;73.01
8320;BME280;4197;42.130;24.746;2023-02-15T01:03:34;100760.22;;;3.40;72.55
8320;BME280;4197;42.130;24.746;2023-02-15T01:06:03;100759.72;;;3.33;73.16
8320;BME280;4197;42.130;24.746;2023-02-15T01:08:31;100753.56;;;3.27;73.22
8320;BME280;4197;42.130;24.746;2023-02-15T01:11:03;100762.09;;;3.40;73.16
8320;BME280;4197;42.130;24.746;2023-02-15T01:13:32;100750.56;;;3.39;72.87
8320;BME280;4197;42.130;24.746;2023-02-15T01:16:01;100751.91;;;3.42;73.12
8320;BME280;4197;42.130;24.746;2023-02-15T01:18:32;100750.56;;;3.39;72.99
8320;BME280;4197;42.130;24.746;2023-02-15T01:21:08;100743.63;;;3.38;73.26
8320;BME280;4197;42.130;24.746;2023-02-15T01:23:37;100743.88;;;3.42;72.79
8320;BME280;4197;42.130;24.746;2023-02-15T01:26:05;100744.97;;;3.35;72.99
8320;BME280;4197;42.130;24.746;2023-02-15T01:28:34;100729.38;;;3.43;72.54
8320;BME280;4197;42.130;24.746;2023-02-15T01:31:06;100737.94;;;3.45;72.31
8320;BME280;4197;42.130;24.746;2023-02-15T01:33:37;100729.38;;;3.43;72.87
8320;BME280;4197;42.130;24.746;2023-02-15T01:36:05;100739.31;;;3.37;72.68
8320;BME280;4197;42.130;24.746;2023-02-15T01:38:34;100740.38;;;3.41;72.49
8320;BME280;4197;42.130;24.746;2023-02-15T01:41:03;100740.66;;;3.40;72.32
8320;BME280;4197;42.130;24.746;2023-02-15T01:43:47;100739.59;;;3.35;73.22
8320;BME280;4197;42.130;24.746;2023-02-15T01:46:16;100744.41;;;3.39;73.16
8320;BME280;4197;42.130;24.746;2023-02-15T01:48:50;100741.50;;;3.25;73.26
8320;BME280;4197;42.130;24.746;2023-02-15T01:51:23;100743.66;;;3.28;73.64
8320;BME280;4197;42.130;24.746;2023-02-15T01:53:54;100743.34;;;3.40;73.08
8320;BME280;4197;42.130;24.746;2023-02-15T01:56:28;100744.41;;;3.44;72.97
8320;BME280;4197;42.130;24.746;2023-02-15T01:58:59;100760.75;;;3.42;72.45
8320;BME280;4197;42.130;24.746;2023-02-15T02:01:30;100749.75;;;3.44;72.39
8320;BME280;4197;42.130;24.746;2023-02-15T02:04:04;100758.31;;;3.46;72.78
8320;BME280;4197;42.130;24.746;2023-02-15T02:06:40;100761.00;;;3.41;72.46
8320;BME280;4197;42.130;24.746;2023-02-15T02:09:08;100763.69;;;3.41;72.94
8320;BME280;4197;42.130;24.746;2023-02-15T02:11:39;100767.75;;;3.38;73.24
8320;BME280;4197;42.130;24.746;2023-02-15T02:14:08;100765.88;;;3.39;72.35
8320;BME280;4197;42.130;24.746;2023-02-15T02:16:42;100772.56;;;3.36;71.97
8320;BME280;4197;42.130;24.746;2023-02-15T02:22:36;100776.59;;;3.33;72.44
8320;BME280;4197;42.130;24.746;2023-02-15T02:28:08;100781.16;;;3.33;73.25
8320;BME280;4197;42.130;24.746;2023-02-15T02:30:57;100783.56;;;3.34;73.01
8320;BME280;4197;42.130;24.746;2023-02-15T02:33:43;100784.34;;;3.35;73.11
8320;BME280;4197;42.130;24.746;2023-02-15T02:36:20;100779.53;;;3.32;72.78
8320;BME280;4197;42.130;24.746;2023-02-15T02:39:02;100779.03;;;3.30;73.13
8320;BME280;4197;42.130;24.746;2023-02-15T02:41:41;100778.22;;;3.29;73.10
8320;BME280;4197;42.130;24.746;2023-02-15T02:44:19;100784.66;;;3.28;72.85
8320;BME280;4197;42.130;24.746;2023-02-15T02:46:52;100791.34;;;3.31;72.40
8320;BME280;4197;42.130;24.746;2023-02-15T02:49:35;100796.97;;;3.29;72.53
8320;BME280;4197;42.130;24.746;2023-02-15T02:52:06;100787.34;;;3.28;72.86
8320;BME280;4197;42.130;24.746;2023-02-15T02:54:35;100784.41;;;3.20;73.28
8320;BME280;4197;42.130;24.746;2023-02-15T02:57:06;100788.44;;;3.17;73.41
8320;BME280;4197;42.130;24.746;2023-02-15T02:59:40;100790.31;;;3.11;73.51
8320;BME280;4197;42.130;24.746;2023-02-15T03:02:12;100781.50;;;3.06;73.97
8320;BME280;4197;42.130;24.746;2023-02-15T03:04:45;100790.88;;;3.13;73.92
8320;BME280;4197;42.130;24.746;2023-02-15T03:09:50;100781.50;;;3.01;74.41
8320;BME280;4197;42.130;24.746;2023-02-15T03:12:21;100791.41;;;3.05;75.25
8320;BME280;4197;42.130;24.746;2023-02-15T03:14:53;100798.91;;;3.08;74.62
8320;BME280;4197;42.130;24.746;2023-02-15T03:17:26;100796.22;;;3.08;74.84
8320;BME280;4197;42.130;24.746;2023-02-15T03:20:00;100798.91;;;3.08;75.08
8320;BME280;4197;42.130;24.746;2023-02-15T03:22:34;100798.38;;;3.11;75.18
8320;BME280;4197;42.130;24.746;2023-02-15T03:25:06;100790.59;;;3.10;75.00
8320;BME280;4197;42.130;24.746;2023-02-15T03:27:39;100789.53;;;3.11;75.68
8320;BME280;4197;42.130;24.746;2023-02-15T03:30:13;100788.72;;;3.10;74.88
8320;BME280;4197;42.130;24.746;2023-02-15T03:32:43;100794.06;;;3.16;75.52
8320;BME280;4197;42.130;24.746;2023-02-15T03:35:14;100783.09;;;3.12;74.89
8320;BME280;4197;42.130;24.746;2023-02-15T03:37:47;100787.34;;;3.13;74.53
8320;BME280;4197;42.130;24.746;2023-02-15T03:40:21;100787.66;;;3.11;74.23
8320;BME280;4197;42.130;24.746;2023-02-15T03:43:12;100791.91;;;3.07;74.37
8320;BME280;4197;42.130;24.746;2023-02-15T03:45:46;100793.81;;;3.12;74.56
8320;BME280;4197;42.130;24.746;2023-02-15T03:48:25;100795.16;;;3.09;74.78
8320;BME280;4197;42.130;24.746;2023-02-15T03:51:00;100803.72;;;3.06;74.71
8320;BME280;4197;42.130;24.746;2023-02-15T03:53:48;100806.16;;;3.08;74.68
8320;BME280;4197;42.130;24.746;2023-02-15T03:56:17;100803.72;;;3.01;75.55
8320;BME280;4197;42.130;24.746;2023-02-15T03:58:45;100807.75;;;3.04;75.11
8320;BME280;4197;42.130;24.746;2023-02-15T04:01:34;100808.53;;;3.15;74.80
8320;BME280;4197;42.130;24.746;2023-02-15T04:04:24;100798.91;;;3.13;74.24
8320;BME280;4197;42.130;24.746;2023-02-15T04:06:54;100806.66;;;3.10;74.59
8320;BME280;4197;42.130;24.746;2023-02-15T04:09:22;100813.66;;;3.11;74.77
8320;BME280;4197;42.130;24.746;2023-02-15T04:12:11;100811.22;;;3.09;74.43
8320;BME280;4197;42.130;24.746;2023-02-15T04:14:39;100812.84;;;3.00;74.93
8320;BME280;4197;42.130;24.746;2023-02-15T04:17:25;100804.28;;;2.93;75.08
8320;BME280;4197;42.130;24.746;2023-02-15T04:19:54;100806.94;;;2.98;75.23
8320;BME280;4197;42.130;24.746;2023-02-15T04:22:41;100808.28;;;2.96;75.17
8320;BME280;4197;42.130;24.746;2023-02-15T04:25:26;100802.41;;;2.99;74.64
8320;BME280;4197;42.130;24.746;2023-02-15T04:27:54;100809.09;;;2.96;75.14
8320;BME280;4197;42.130;24.746;2023-02-15T04:30:25;100816.31;;;2.85;75.24
8320;BME280;4197;42.130;24.746;2023-02-15T04:32:54;100826.00;;;2.86;75.21
8320;BME280;4197;42.130;24.746;2023-02-15T04:35:24;100830.00;;;2.79;75.16
8320;BME280;4197;42.130;24.746;2023-02-15T04:37:54;100831.34;;;2.81;75.61
8320;BME280;4197;42.130;24.746;2023-02-15T04:40:22;100824.94;;;2.77;74.78
8320;BME280;4197;42.130;24.746;2023-02-15T04:42:50;100835.91;;;2.76;75.67
8320;BME280;4197;42.130;24.746;2023-02-15T04:45:19;100836.69;;;2.71;75.63
8320;BME280;4197;42.130;24.746;2023-02-15T04:47:47;100831.31;;;2.66;75.47
8320;BME280;4197;42.130;24.746;2023-02-15T04:50:16;100833.50;;;2.64;75.75
8320;BME280;4197;42.130;24.746;2023-02-15T04:52:44;100836.41;;;2.57;76.71
8320;BME280;4197;42.130;24.746;2023-02-15T04:55:14;100850.09;;;2.56;76.68
8320;BME280;4197;42.130;24.746;2023-02-15T04:57:42;100846.31;;;2.57;76.96
8320;BME280;4197;42.130;24.746;2023-02-15T05:00:11;100850.88;;;2.61;76.94
8320;BME280;4197;42.130;24.746;2023-02-15T05:02:40;100858.63;;;2.63;76.48
8320;BME280;4197;42.130;24.746;2023-02-15T05:05:08;100858.38;;;2.64;76.94
8320;BME280;4197;42.130;24.746;2023-02-15T05:07:39;100865.34;;;2.60;76.81
8320;BME280;4197;42.130;24.746;2023-02-15T05:10:08;100864.53;;;2.55;76.77
8320;BME280;4197;42.130;24.746;2023-02-15T05:12:38;100876.84;;;2.56;77.83
8320;BME280;4197;42.130;24.746;2023-02-15T05:15:07;100868.81;;;2.56;77.26
8320;BME280;4197;42.130;24.746;2023-02-15T05:17:35;100870.44;;;2.62;77.31
8320;BME280;4197;42.130;24.746;2023-02-15T05:20:05;100875.50;;;2.53;77.19
8320;BME280;4197;42.130;24.746;2023-02-15T05:22:33;100876.59;;;2.62;77.02
8320;BME280;4197;42.130;24.746;2023-02-15T05:25:01;100879.53;;;2.66;77.38
8320;BME280;4197;42.130;24.746;2023-02-15T05:27:48;100884.91;;;2.71;77.28
8320;BME280;4197;42.130;24.746;2023-02-15T05:30:33;100893.47;;;2.63;77.88
8320;BME280;4197;42.130;24.746;2023-02-15T05:33:03;100893.22;;;2.64;77.51
8320;BME280;4197;42.130;24.746;2023-02-15T05:35:31;100896.16;;;2.73;77.68
8320;BME280;4197;42.130;24.746;2023-02-15T05:38:00;100893.75;;;2.72;77.50
8320;BME280;4197;42.130;24.746;2023-02-15T05:40:28;100898.56;;;2.80;77.50
8320;BME280;4197;42.130;24.746;2023-02-15T05:42:59;100904.47;;;2.87;77.43
8320;BME280;4197;42.130;24.746;2023-02-15T05:45:27;100909.03;;;2.86;77.69
8320;BME280;4197;42.130;24.746;2023-02-15T05:47:55;100908.50;;;2.89;77.83
8320;BME280;4197;42.130;24.746;2023-02-15T05:50:25;100906.91;;;2.99;77.38
8320;BME280;4197;42.130;24.746;2023-02-15T05:52:53;100908.78;;;2.98;77.15
8320;BME280;4197;42.130;24.746;2023-02-15T05:55:21;100915.47;;;3.01;76.61
8320;BME280;4197;42.130;24.746;2023-02-15T05:57:49;100919.50;;;3.03;77.21
8320;BME280;4197;42.130;24.746;2023-02-15T06:00:20;100922.19;;;3.13;76.41
8320;BME280;4197;42.130;24.746;2023-02-15T06:02:48;100920.84;;;3.11;76.86
8320;BME280;4197;42.130;24.746;2023-02-15T06:05:16;100917.91;;;3.23;75.91
8320;BME280;4197;42.130;24.746;2023-02-15T06:07:44;100928.09;;;3.36;75.81
8320;BME280;4197;42.130;24.746;2023-02-15T06:10:13;100922.19;;;3.44;75.70
8320;BME280;4197;42.130;24.746;2023-02-15T06:12:43;100918.97;;;3.52;75.21
8320;BME280;4197;42.130;24.746;2023-02-15T06:15:11;100915.19;;;3.58;74.84
8320;BME280;4197;42.130;24.746;2023-02-15T06:17:42;100921.06;;;3.66;74.95
8320;BME280;4197;42.130;24.746;2023-02-15T06:20:11;100925.88;;;3.74;74.64
8320;BME280;4197;42.130;24.746;2023-02-15T06:22:39;100926.16;;;3.72;74.47
8320;BME280;4197;42.130;24.746;2023-02-15T06:25:08;100930.13;;;3.85;73.81
8320;BME280;4197;42.130;24.746;2023-02-15T06:27:40;100937.38;;;3.90;73.72
8320;BME280;4197;42.130;24.746;2023-02-15T06:30:10;100930.66;;;4.02;72.78
8320;BME280;4197;42.130;24.746;2023-02-15T06:32:39;100930.34;;;4.04;73.18
8320;BME280;4197;42.130;24.746;2023-02-15T06:35:09;100927.41;;;4.11;73.08
8320;BME280;4197;42.130;24.746;2023-02-15T06:37:38;100925.75;;;4.20;72.21
8320;BME280;4197;42.130;24.746;2023-02-15T06:40:08;100938.34;;;4.24;72.26
8320;BME280;4197;42.130;24.746;2023-02-15T06:42:36;100949.88;;;4.35;71.78
8320;BME280;4197;42.130;24.746;2023-02-15T06:45:05;100930.78;;;4.37;71.67
8320;BME280;4197;42.130;24.746;2023-02-15T06:47:34;100939.31;;;4.49;71.11
8320;BME280;4197;42.130;24.746;2023-02-15T06:50:02;100939.25;;;4.59;71.08
8320;BME280;4197;42.130;24.746;2023-02-15T06:52:33;100936.84;;;4.63;70.33
8320;BME280;4197;42.130;24.746;2023-02-15T06:55:02;100930.06;;;4.70;70.48
8320;BME280;4197;42.130;24.746;2023-02-15T06:57:30;100941.06;;;4.74;69.84
8320;BME280;4197;42.130;24.746;2023-02-15T07:00:00;100935.94;;;4.78;69.72
8320;BME280;4197;42.130;24.746;2023-02-15T07:02:28;100947.44;;;4.88;69.27
8320;BME280;4197;42.130;24.746;2023-02-15T07:04:56;100943.34;;;4.96;68.64
8320;BME280;4197;42.130;24.746;2023-02-15T07:07:25;100934.41;;;5.06;68.25
8320;BME280;4197;42.130;24.746;2023-02-15T07:09:54;100925.50;;;5.10;67.75
8320;BME280;4197;42.130;24.746;2023-02-15T07:12:22;100933.53;;;5.16;67.37
8320;BME280;4197;42.130;24.746;2023-02-15T07:15:10;100922.72;;;5.21;67.22
8320;BME280;4197;42.130;24.746;2023-02-15T07:17:39;100927.78;;;5.27;66.51
8320;BME280;4197;42.130;24.746;2023-02-15T07:20:09;100925.06;;;5.32;66.50
8320;BME280;4197;42.130;24.746;2023-02-15T07:22:38;100929.00;;;5.40;66.28
8320;BME280;4197;42.130;24.746;2023-02-15T07:25:10;100928.16;;;5.45;65.80
8320;BME280;4197;42.130;24.746;2023-02-15T07:27:39;100926.00;;;5.47;65.93
8320;BME280;4197;42.130;24.746;2023-02-15T07:30:10;100928.34;;;5.53;65.57
8320;BME280;4197;42.130;24.746;2023-02-15T07:32:39;100922.66;;;5.60;65.60
8320;BME280;4197;42.130;24.746;2023-02-15T07:35:31;100927.91;;;5.70;65.13
8320;BME280;4197;42.130;24.746;2023-02-15T07:37:59;100923.09;;;5.67;65.57
8320;BME280;4197;42.130;24.746;2023-02-15T07:40:29;100926.28;;;5.74;64.76
8320;BME280;4197;42.130;24.746;2023-02-15T07:42:58;100928.16;;;5.74;64.80
8320;BME280;4197;42.130;24.746;2023-02-15T07:45:26;100921.63;;;5.80;64.65
8320;BME280;4197;42.130;24.746;2023-02-15T07:47:55;100924.78;;;5.87;64.44
8320;BME280;4197;42.130;24.746;2023-02-15T07:50:24;100927.16;;;5.94;64.09
8320;BME280;4197;42.130;24.746;2023-02-15T07:52:52;100938.91;;;6.03;64.08
8320;BME280;4197;42.130;24.746;2023-02-15T07:55:21;100935.53;;;6.16;63.12
8320;BME280;4197;42.130;24.746;2023-02-15T07:57:50;100936.06;;;6.18;62.33
8320;BME280;4197;42.130;24.746;2023-02-15T08:00:22;100944.13;;;6.18;62.29
8320;BME280;4197;42.130;24.746;2023-02-15T08:02:52;100940.56;;;6.23;62.26
8320;BME280;4197;42.130;24.746;2023-02-15T08:05:36;100928.41;;;6.25;62.07
8320;BME280;4197;42.130;24.746;2023-02-15T08:08:04;100929.78;;;6.23;61.96
8320;BME280;4197;42.130;24.746;2023-02-15T08:10:33;100925.59;;;6.36;61.70
8320;BME280;4197;42.130;24.746;2023-02-15T08:13:20;100931.19;;;6.39;61.97
8320;BME280;4197;42.130;24.746;2023-02-15T08:15:49;100934.03;;;6.48;61.33
8320;BME280;4197;42.130;24.746;2023-02-15T08:18:17;100923.19;;;6.53;61.21
8320;BME280;4197;42.130;24.746;2023-02-15T08:20:48;100925.25;;;6.61;60.94
8320;BME280;4197;42.130;24.746;2023-02-15T08:23:17;100928.16;;;6.65;60.96
8320;BME280;4197;42.130;24.746;2023-02-15T08:25:45;100925.75;;;6.63;61.05
8320;BME280;4197;42.130;24.746;2023-02-15T08:28:13;100932.47;;;6.66;60.70
8320;BME280;4197;42.130;24.746;2023-02-15T08:30:44;100930.84;;;6.65;60.70
8320;BME280;4197;42.130;24.746;2023-02-15T08:33:15;100931.56;;;6.70;60.65
8320;BME280;4197;42.130;24.746;2023-02-15T08:35:44;100938.66;;;6.85;60.45
8320;BME280;4197;42.130;24.746;2023-02-15T08:38:13;100933.34;;;6.99;59.88
8320;BME280;4197;42.130;24.746;2023-02-15T08:40:41;100934.34;;;7.03;59.52
8320;BME280;4197;42.130;24.746;2023-02-15T08:43:09;100936.28;;;7.17;58.77
8320;BME280;4197;42.130;24.746;2023-02-15T08:45:37;100940.50;;;7.23;58.38
8320;BME280;4197;42.130;24.746;2023-02-15T08:48:07;100924.84;;;7.25;58.38
8320;BME280;4197;42.130;24.746;2023-02-15T08:50:35;100925.84;;;7.29;58.08
8320;BME280;4197;42.130;24.746;2023-02-15T08:53:04;100933.56;;;7.35;58.18
8320;BME280;4197;42.130;24.746;2023-02-15T08:55:32;100939.06;;;7.44;57.90
8320;BME280;4197;42.130;24.746;2023-02-15T08:58:00;100939.66;;;7.41;57.63
8320;BME280;4197;42.130;24.746;2023-02-15T09:00:28;100944.09;;;7.51;57.62
8320;BME280;4197;42.130;24.746;2023-02-15T09:02:57;100940.00;;;7.53;57.43
8320;BME280;4197;42.130;24.746;2023-02-15T09:05:27;100936.22;;;7.54;57.22
8320;BME280;4197;42.130;24.746;2023-02-15T09:07:55;100937.50;;;7.57;57.59
8320;BME280;4197;42.130;24.746;2023-02-15T09:10:23;100931.31;;;7.70;57.41
8320;BME280;4197;42.130;24.746;2023-02-15T09:12:52;100921.22;;;7.76;57.01
8320;BME280;4197;42.130;24.746;2023-02-15T09:15:20;100926.06;;;7.79;56.36
8320;BME280;4197;42.130;24.746;2023-02-15T09:17:50;100914.22;;;7.75;56.88
8320;BME280;4197;42.130;24.746;2023-02-15T09:20:18;100918.25;;;7.91;56.32
8320;BME280;4197;42.130;24.746;2023-02-15T09:22:48;100917.03;;;7.97;56.21
8320;BME280;4197;42.130;24.746;2023-02-15T09:25:16;100910.94;;;8.05;55.96
8320;BME280;4197;42.130;24.746;2023-02-15T09:27:44;100912.34;;;8.03;56.18
8320;BME280;4197;42.130;24.746;2023-02-15T09:30:13;100908.31;;;8.14;55.59
8320;BME280;4197;42.130;24.746;2023-02-15T09:32:41;100915.81;;;8.17;54.89
8320;BME280;4197;42.130;24.746;2023-02-15T09:35:10;100908.84;;;8.16;55.09
8320;BME280;4197;42.130;24.746;2023-02-15T09:37:38;100903.84;;;8.23;55.33
8320;BME280;4197;42.130;24.746;2023-02-15T09:40:11;100909.84;;;8.20;55.17
8320;BME280;4197;42.130;24.746;2023-02-15T09:43:04;100908.81;;;8.30;54.55
8320;BME280;4197;42.130;24.746;2023-02-15T09:45:52;100908.72;;;8.35;54.14
8320;BME280;4197;42.130;24.746;2023-02-15T09:48:37;100902.13;;;8.41;54.35
8320;BME280;4197;42.130;24.746;2023-02-15T09:51:32;100905.69;;;8.51;53.74
8320;BME280;4197;42.130;24.746;2023-02-15T09:54:22;100887.28;;;8.53;54.04
8320;BME280;4197;42.130;24.746;2023-02-15T09:56:58;100889.03;;;8.71;53.78
8320;BME280;4197;42.130;24.746;2023-02-15T09:59:42;100885.72;;;8.74;53.81
8320;BME280;4197;42.130;24.746;2023-02-15T10:02:27;100887.06;;;8.85;53.14
8320;BME280;4197;42.130;24.746;2023-02-15T10:05:15;100882.16;;;8.87;53.10
8320;BME280;4197;42.130;24.746;2023-02-15T10:10:48;100879.56;;;9.05;52.29
8320;BME280;4197;42.130;24.746;2023-02-15T10:13:31;100873.03;;;9.06;51.31
8320;BME280;4197;42.130;24.746;2023-02-15T10:16:12;100870.28;;;8.97;50.79
8320;BME280;4197;42.130;24.746;2023-02-15T10:18:54;100869.00;;;8.94;51.37
8320;BME280;4197;42.130;24.746;2023-02-15T10:21:39;100869.78;;;8.95;51.37
8320;BME280;4197;42.130;24.746;2023-02-15T10:24:44;100863.47;;;9.00;51.03
8320;BME280;4197;42.130;24.746;2023-02-15T10:27:18;100862.53;;;9.04;50.84
8320;BME280;4197;42.130;24.746;2023-02-15T10:30:00;100853.13;;;9.02;51.37
8320;BME280;4197;42.130;24.746;2023-02-15T10:32:35;100850.66;;;9.14;50.61
8320;BME280;4197;42.130;24.746;2023-02-15T10:35:15;100850.22;;;9.21;50.68
8320;BME280;4197;42.130;24.746;2023-02-15T10:40:41;100846.09;;;9.23;50.39
8320;BME280;4197;42.130;24.746;2023-02-15T10:43:24;100841.22;;;9.34;49.47
8320;BME280;4197;42.130;24.746;2023-02-15T10:46:08;100838.19;;;9.35;49.69
8320;BME280;4197;42.130;24.746;2023-02-15T10:51:42;100841.28;;;9.51;48.80
8320;BME280;4197;42.130;24.746;2023-02-15T10:54:22;100827.09;;;9.46;49.33
8320;BME280;4197;42.130;24.746;2023-02-15T10:57:02;100821.84;;;9.49;49.72
8320;BME280;4197;42.130;24.746;2023-02-15T11:02:39;100822.38;;;9.60;48.74
8320;BME280;4197;42.130;24.746;2023-02-15T11:05:22;100826.34;;;9.54;47.39
8320;BME280;4197;42.130;24.746;2023-02-15T11:08:03;100817.84;;;9.47;48.03
8320;BME280;4197;42.130;24.746;2023-02-15T11:10:35;100816.59;;;9.53;48.79
8320;BME280;4197;42.130;24.746;2023-02-15T11:13:09;100816.16;;;9.59;48.60
8320;BME280;4197;42.130;24.746;2023-02-15T11:15:42;100812.16;;;9.57;48.18
8320;BME280;4197;42.130;24.746;2023-02-15T11:18:18;100802.28;;;9.61;48.07
8320;BME280;4197;42.130;24.746;2023-02-15T11:20:54;100804.72;;;9.71;48.08
8320;BME280;4197;42.130;24.746;2023-02-15T11:23:25;100804.59;;;9.94;46.87
8320;BME280;4197;42.130;24.746;2023-02-15T11:25:56;100794.88;;;9.84;47.44
8320;BME280;4197;42.130;24.746;2023-02-15T11:28:31;100794.41;;;9.91;47.11
8320;BME280;4197;42.130;24.746;2023-02-15T11:31:12;100793.31;;;10.00;45.47
8320;BME280;4197;42.130;24.746;2023-02-15T11:33:45;100783.41;;;9.87;45.79
8320;BME280;4197;42.130;24.746;2023-02-15T11:36:17;100786.13;;;9.87;45.75
8320;BME280;4197;42.130;24.746;2023-02-15T11:38:50;100778.44;;;9.89;45.70
8320;BME280;4197;42.130;24.746;2023-02-15T11:41:24;100772.56;;;9.96;45.85
8320;BME280;4197;42.130;24.746;2023-02-15T11:43:58;100767.66;;;9.98;45.85
8320;BME280;4197;42.130;24.746;2023-02-15T11:46:28;100775.16;;;10.10;45.40
8320;BME280;4197;42.130;24.746;2023-02-15T11:48:59;100768.59;;;10.11;44.98
8320;BME280;4197;42.130;24.746;2023-02-15T11:51:27;100772.28;;;10.15;44.64
8320;BME280;4197;42.130;24.746;2023-02-15T11:53:57;100760.47;;;10.02;44.84
8320;BME280;4197;42.130;24.746;2023-02-15T11:56:25;100770.38;;;10.15;45.12
8320;BME280;4197;42.130;24.746;2023-02-15T11:58:58;100757.75;;;10.11;45.25
8320;BME280;4197;42.130;24.746;2023-02-15T12:01:30;100750.41;;;10.11;44.90
8320;BME280;4197;42.130;24.746;2023-02-15T12:04:06;100747.41;;;10.04;46.10
8320;BME280;4197;42.130;24.746;2023-02-15T12:06:38;100742.13;;;10.25;45.03
8320;BME280;4197;42.130;24.746;2023-02-15T12:09:17;100750.94;;;10.39;43.76
8320;BME280;4197;42.130;24.746;2023-02-15T12:11:49;100744.41;;;10.32;44.50
8320;BME280;4197;42.130;24.746;2023-02-15T12:14:18;100738.19;;;10.31;44.71
8320;BME280;4197;42.130;24.746;2023-02-15T12:16:49;100743.59;;;10.48;44.46
8320;BME280;4197;42.130;24.746;2023-02-15T12:19:30;100740.53;;;10.50;43.67
8320;BME280;4197;42.130;24.746;2023-02-15T12:22:01;100743.44;;;10.45;43.56
8320;BME280;4197;42.130;24.746;2023-02-15T12:24:32;100738.16;;;10.48;42.85
8320;BME280;4197;42.130;24.746;2023-02-15T12:27:05;100742.31;;;10.46;42.76
8320;BME280;4197;42.130;24.746;2023-02-15T12:29:39;100738.16;;;10.48;43.29
8320;BME280;4197;42.130;24.746;2023-02-15T12:32:16;100740.53;;;10.59;43.41
8320;BME280;4197;42.130;24.746;2023-02-15T12:34:48;100741.34;;;10.59;43.09
8320;BME280;4197;42.130;24.746;2023-02-15T12:37:21;100739.88;;;10.70;42.06
8320;BME280;4197;42.130;24.746;2023-02-15T12:39:53;100737.97;;;10.62;41.43
8320;BME280;4197;42.130;24.746;2023-02-15T12:42:23;100730.66;;;10.54;41.48
8320;BME280;4197;42.130;24.746;2023-02-15T12:44:55;100734.63;;;10.57;42.27
8320;BME280;4197;42.130;24.746;2023-02-15T12:47:24;100735.75;;;10.64;40.97
8320;BME280;4197;42.130;24.746;2023-02-15T12:50:21;100737.50;;;10.60;42.72
8320;BME280;4197;42.130;24.746;2023-02-15T12:52:51;100728.72;;;10.55;43.16
8320;BME280;4197;42.130;24.746;2023-02-15T12:55:33;100729.34;;;10.60;43.27
8320;BME280;4197;42.130;24.746;2023-02-15T12:58:08;100721.19;;;10.69;42.39
8320;BME280;4197;42.130;24.746;2023-02-15T13:00:42;100725.31;;;10.75;41.64
8320;BME280;4197;42.130;24.746;2023-02-15T13:03:17;100719.88;;;10.75;40.94
8320;BME280;4197;42.130;24.746;2023-02-15T13:05:51;100722.31;;;10.68;41.13
8320;BME280;4197;42.130;24.746;2023-02-15T13:08:26;100721.97;;;10.69;40.23
8320;BME280;4197;42.130;24.746;2023-02-15T13:10:57;100715.94;;;10.73;39.07
8320;BME280;4197;42.130;24.746;2023-02-15T13:13:30;100721.16;;;10.78;39.77
8320;BME280;4197;42.130;24.746;2023-02-15T13:16:02;100717.47;;;10.91;40.00
8320;BME280;4197;42.130;24.746;2023-02-15T13:18:35;100722.59;;;10.84;40.17
8320;BME280;4197;42.130;24.746;2023-02-15T13:21:11;100723.22;;;10.81;40.25
8320;BME280;4197;42.130;24.746;2023-02-15T13:23:44;100719.88;;;10.75;39.98
8320;BME280;4197;42.130;24.746;2023-02-15T13:26:18;100713.03;;;10.78;40.39
8320;BME280;4197;42.130;24.746;2023-02-15T13:28:50;100713.97;;;10.82;40.16
8320;BME280;4197;42.130;24.746;2023-02-15T13:31:23;100710.78;;;10.80;40.46
8320;BME280;4197;42.130;24.746;2023-02-15T13:33:53;100714.47;;;10.75;40.85
8320;BME280;4197;42.130;24.746;2023-02-15T13:36:29;100701.59;;;10.63;41.25
8320;BME280;4197;42.130;24.746;2023-02-15T13:39:09;100709.44;;;10.94;40.79
8320;BME280;4197;42.130;24.746;2023-02-15T13:41:50;100698.47;;;10.91;40.33
8320;BME280;4197;42.130;24.746;2023-02-15T13:44:29;100702.63;;;10.88;40.70
8320;BME280;4197;42.130;24.746;2023-02-15T13:47:11;100700.88;;;10.92;40.60
8320;BME280;4197;42.130;24.746;2023-02-15T13:49:54;100695.22;;;11.06;40.17
8320;BME280;4197;42.130;24.746;2023-02-15T13:52:28;100693.81;;;10.91;40.74
8320;BME280;4197;42.130;24.746;2023-02-15T13:55:24;100693.69;;;10.88;41.23
8320;BME280;4197;42.130;24.746;2023-02-15T13:58:11;100689.66;;;10.94;40.99
8320;BME280;4197;42.130;24.746;2023-02-15T14:00:48;100691.09;;;11.00;40.00